sensor_id;sensor_type;location;lat;lon;timestamp;temperature;humidity
38941;DHT22;43236;47.208;7.518;2023-05-09T00:02:00;17.60;99.90
38941;DHT22;43236;47.208;7.518;2023-05-09T00:04:47;19.00;99.90
38941;DHT22;43236;47.208;7.518;2023-05-09T00:07:34;17.70;99.90
38941;DHT22;43236;47.208;7.518;2023-05-09T00:10:21;17.70;99.90
38941;DHT22;43236;47.208;7.518;2023-05-09T00:13:08;18.40;99.90
38941;DHT22;43236;47.208;7.518;2023-05-09T00:15:58;18.20;99.90
38941;DHT22;43236;47.208;7.518;2023-05-09T00:18:45;17.50;99.90
38941;DHT22;43236;47.208;7.518;2023-05-09T00:21:32;18.90;99.90
38941;DHT22;43236;47.208;7.518;2023-05-09T00:24:19;17.50;99.90
38941;DHT22;43236;47.208;7.518;2023-05-09T00:27:06;17.90;99.90
38941;DHT22;43236;47.208;7.518;2023-05-09T00:29:53;17.30;99.90
38941;DHT22;43236;47.208;7.518;2023-05-09T00:32:41;17.00;99.90
38941;DHT22;43236;47.208;7.518;2023-05-09T00:35:28;16.90;99.90
38941;DHT22;43236;47.208;7.518;2023-05-09T00:41:04;17.80;99.90
38941;DHT22;43236;47.208;7.518;2023-05-09T00:43:50;16.60;99.90
38941;DHT22;43236;47.208;7.518;2023-05-09T00:46:37;18.20;99.90
38941;DHT22;43236;47.208;7.518;2023-05-09T00:49:26;16.80;99.90
38941;DHT22;43236;47.208;7.518;2023-05-09T00:52:13;17.70;99.90
38941;DHT22;43236;47.208;7.518;2023-05-09T00:55:00;16.70;99.90
38941;DHT22;43236;47.208;7.518;2023-05-09T00:57:47;18.10;99.90
38941;DHT22;43236;47.208;7.518;2023-05-09T01:00:34;17.50;99.90
38941;DHT22;43236;47.208;7.518;2023-05-09T01:03:21;16.50;99.90
38941;DHT22;43236;47.208;7.518;2023-05-09T01:06:11;16.90;99.90
38941;DHT22;43236;47.208;7.518;2023-05-09T01:09:01;17.90;99.90
38941;DHT22;43236;47.208;7.518;2023-05-09T01:11:51;16.20;99.90
38941;DHT22;43236;47.208;7.518;2023-05-09T01:14:41;14.80;99.90
38941;DHT22;43236;47.208;7.518;2023-05-09T01:17:31;17.10;99.90
38941;DHT22;43236;47.208;7.518;2023-05-09T01:20:23;16.60;99.90
38941;DHT22;43236;47.208;7.518;2023-05-09T01:23:21;16.10;99.90
38941;DHT22;43236;47.208;7.518;2023-05-09T01:26:12;17.40;99.90
38941;DHT22;43236;47.208;7.518;2023-05-09T01:29:16;18.00;99.90
38941;DHT22;43236;47.208;7.518;2023-05-09T01:32:09;18.10;99.90
38941;DHT22;43236;47.208;7.518;2023-05-09T01:34:58;18.30;99.90
38941;DHT22;43236;47.208;7.518;2023-05-09T01:37:45;18.10;99.90
38941;DHT22;43236;47.208;7.518;2023-05-09T01:40:33;18.10;99.90
38941;DHT22;43236;47.208;7.518;2023-05-09T01:43:20;18.00;99.90
38941;DHT22;43236;47.208;7.518;2023-05-09T01:46:09;17.80;99.90
38941;DHT22;43236;47.208;7.518;2023-05-09T01:48:57;15.50;99.90
38941;DHT22;43236;47.208;7.518;2023-05-09T01:54:32;16.10;99.90
38941;DHT22;43236;47.208;7.518;2023-05-09T01:57:19;16.90;99.90
38941;DHT22;43236;47.208;7.518;2023-05-09T02:00:07;18.00;99.90
38941;DHT22;43236;47.208;7.518;2023-05-09T02:02:56;17.40;99.90
38941;DHT22;43236;47.208;7.518;2023-05-09T02:05:43;17.70;99.90
38941;DHT22;43236;47.208;7.518;2023-05-09T02:08:31;16.60;99.90
38941;DHT22;43236;47.208;7.518;2023-05-09T02:11:18;16.10;99.90
38941;DHT22;43236;47.208;7.518;2023-05-09T02:14:05;17.50;99.90
38941;DHT22;43236;47.208;7.518;2023-05-09T02:16:52;18.20;99.90
38941;DHT22;43236;47.208;7.518;2023-05-09T02:19:40;17.90;99.90
38941;DHT22;43236;47.208;7.518;2023-05-09T02:22:27;17.00;99.90
38941;DHT22;43236;47.208;7.518;2023-05-09T02:25:15;16.00;99.90
38941;DHT22;43236;47.208;7.518;2023-05-09T02:28:03;17.40;99.90
38941;DHT22;43236;47.208;7.518;2023-05-09T02:30:50;18.00;99.90
38941;DHT22;43236;47.208;7.518;2023-05-09T02:33:37;18.30;99.90
38941;DHT22;43236;47.208;7.518;2023-05-09T02:36:26;17.60;99.90
38941;DHT22;43236;47.208;7.518;2023-05-09T02:39:13;17.30;99.90
38941;DHT22;43236;47.208;7.518;2023-05-09T02:42:05;17.10;99.90
38941;DHT22;43236;47.208;7.518;2023-05-09T02:44:52;17.30;99.90
38941;DHT22;43236;47.208;7.518;2023-05-09T02:47:40;17.90;99.90
38941;DHT22;43236;47.208;7.518;2023-05-09T02:50:26;17.60;99.90
38941;DHT22;43236;47.208;7.518;2023-05-09T02:53:15;17.30;99.90
38941;DHT22;43236;47.208;7.518;2023-05-09T02:56:02;16.80;99.90
38941;DHT22;43236;47.208;7.518;2023-05-09T03:01:36;16.40;99.90
38941;DHT22;43236;47.208;7.518;2023-05-09T03:04:23;16.10;99.90
38941;DHT22;43236;47.208;7.518;2023-05-09T03:07:10;18.40;99.90
38941;DHT22;43236;47.208;7.518;2023-05-09T03:09:59;18.30;99.90
38941;DHT22;43236;47.208;7.518;2023-05-09T03:12:45;17.10;99.90
38941;DHT22;43236;47.208;7.518;2023-05-09T03:15:32;17.60;99.90
38941;DHT22;43236;47.208;7.518;2023-05-09T03:18:19;17.80;99.90
38941;DHT22;43236;47.208;7.518;2023-05-09T03:21:06;18.40;99.90
38941;DHT22;43236;47.208;7.518;2023-05-09T03:23:53;18.30;99.90
38941;DHT22;43236;47.208;7.518;2023-05-09T03:26:41;18.50;99.90
38941;DHT22;43236;47.208;7.518;2023-05-09T03:29:28;18.00;99.90
38941;DHT22;43236;47.208;7.518;2023-05-09T03:32:15;18.30;99.90
38941;DHT22;43236;47.208;7.518;2023-05-09T03:35:02;17.40;99.90
38941;DHT22;43236;47.208;7.518;2023-05-09T03:37:49;17.20;99.90
38941;DHT22;43236;47.208;7.518;2023-05-09T03:40:36;18.50;99.90
38941;DHT22;43236;47.208;7.518;2023-05-09T03:43:25;16.70;99.90
38941;DHT22;43236;47.208;7.518;2023-05-09T03:46:12;16.30;99.90
38941;DHT22;43236;47.208;7.518;2023-05-09T03:48:59;17.50;99.90
38941;DHT22;43236;47.208;7.518;2023-05-09T03:51:45;18.00;99.90
38941;DHT22;43236;47.208;7.518;2023-05-09T03:54:32;16.90;99.90
38941;DHT22;43236;47.208;7.518;2023-05-09T03:57:19;17.80;99.90
38941;DHT22;43236;47.208;7.518;2023-05-09T04:00:08;18.20;99.90
38941;DHT22;43236;47.208;7.518;2023-05-09T04:02:55;18.30;99.90
38941;DHT22;43236;47.208;7.518;2023-05-09T04:05:42;17.80;99.90
38941;DHT22;43236;47.208;7.518;2023-05-09T04:08:29;16.80;99.90
38941;DHT22;43236;47.208;7.518;2023-05-09T04:11:16;18.20;99.90
38941;DHT22;43236;47.208;7.518;2023-05-09T04:14:03;16.30;99.90
38941;DHT22;43236;47.208;7.518;2023-05-09T04:16:53;16.90;99.90
38941;DHT22;43236;47.208;7.518;2023-05-09T04:19:39;17.20;99.90
38941;DHT22;43236;47.208;7.518;2023-05-09T04:22:26;17.00;99.90
38941;DHT22;43236;47.208;7.518;2023-05-09T04:25:14;16.60;99.90
38941;DHT22;43236;47.208;7.518;2023-05-09T04:28:01;18.60;99.90
38941;DHT22;43236;47.208;7.518;2023-05-09T04:30:48;18.30;99.90
38941;DHT22;43236;47.208;7.518;2023-05-09T04:33:37;16.80;99.90
38941;DHT22;43236;47.208;7.518;2023-05-09T04:36:24;18.30;99.90
38941;DHT22;43236;47.208;7.518;2023-05-09T04:39:12;15.30;99.90
38941;DHT22;43236;47.208;7.518;2023-05-09T04:41:59;17.50;99.90
38941;DHT22;43236;47.208;7.518;2023-05-09T04:44:45;16.50;99.90
38941;DHT22;43236;47.208;7.518;2023-05-09T04:47:33;17.40;99.90
38941;DHT22;43236;47.208;7.518;2023-05-09T04:50:22;17.10;99.90
38941;DHT22;43236;47.208;7.518;2023-05-09T04:55:56;18.60;99.90
38941;DHT22;43236;47.208;7.518;2023-05-09T04:58:43;16.60;99.90
38941;DHT22;43236;47.208;7.518;2023-05-09T05:01:30;17.30;99.90
38941;DHT22;43236;47.208;7.518;2023-05-09T05:04:17;16.60;99.90
38941;DHT22;43236;47.208;7.518;2023-05-09T05:07:05;18.70;99.90
38941;DHT22;43236;47.208;7.518;2023-05-09T05:09:52;16.70;99.90
38941;DHT22;43236;47.208;7.518;2023-05-09T05:12:39;17.00;99.90
38941;DHT22;43236;47.208;7.518;2023-05-09T05:15:26;16.90;99.90
38941;DHT22;43236;47.208;7.518;2023-05-09T05:18:13;16.60;99.90
38941;DHT22;43236;47.208;7.518;2023-05-09T05:21:00;17.50;99.90
38941;DHT22;43236;47.208;7.518;2023-05-09T05:23:48;17.20;99.90
38941;DHT22;43236;47.208;7.518;2023-05-09T05:26:35;17.10;99.90
38941;DHT22;43236;47.208;7.518;2023-05-09T05:29:22;17.20;99.90
38941;DHT22;43236;47.208;7.518;2023-05-09T05:32:09;18.00;99.90
38941;DHT22;43236;47.208;7.518;2023-05-09T05:34:56;16.90;99.90
38941;DHT22;43236;47.208;7.518;2023-05-09T05:37:43;17.60;99.90
38941;DHT22;43236;47.208;7.518;2023-05-09T05:40:31;18.70;99.90
38941;DHT22;43236;47.208;7.518;2023-05-09T05:43:18;17.40;99.90
38941;DHT22;43236;47.208;7.518;2023-05-09T05:46:05;17.50;99.90
38941;DHT22;43236;47.208;7.518;2023-05-09T05:48:52;18.90;99.90
38941;DHT22;43236;47.208;7.518;2023-05-09T05:51:39;17.40;99.90
38941;DHT22;43236;47.208;7.518;2023-05-09T05:54:26;18.40;99.90
38941;DHT22;43236;47.208;7.518;2023-05-09T05:57:14;16.80;99.90
38941;DHT22;43236;47.208;7.518;2023-05-09T06:00:01;18.20;99.90
38941;DHT22;43236;47.208;7.518;2023-05-09T06:02:50;18.80;99.90
38941;DHT22;43236;47.208;7.518;2023-05-09T06:05:37;17.80;99.90
38941;DHT22;43236;47.208;7.518;2023-05-09T06:08:26;17.80;99.90
38941;DHT22;43236;47.208;7.518;2023-05-09T06:11:13;19.20;99.90
38941;DHT22;43236;47.208;7.518;2023-05-09T06:14:02;17.80;99.90
38941;DHT22;43236;47.208;7.518;2023-05-09T06:16:48;18.80;99.90
38941;DHT22;43236;47.208;7.518;2023-05-09T06:19:36;17.80;99.90
38941;DHT22;43236;47.208;7.518;2023-05-09T06:22:23;17.90;99.90
38941;DHT22;43236;47.208;7.518;2023-05-09T06:25:10;17.90;99.90
38941;DHT22;43236;47.208;7.518;2023-05-09T06:27:57;18.00;99.90
38941;DHT22;43236;47.208;7.518;2023-05-09T06:30:45;17.90;99.90
38941;DHT22;43236;47.208;7.518;2023-05-09T06:33:32;18.10;99.90
38941;DHT22;43236;47.208;7.518;2023-05-09T06:36:19;19.60;99.90
38941;DHT22;43236;47.208;7.518;2023-05-09T06:39:05;19.40;99.90
38941;DHT22;43236;47.208;7.518;2023-05-09T06:41:52;19.00;99.90
38941;DHT22;43236;47.208;7.518;2023-05-09T06:44:39;18.20;99.90
38941;DHT22;43236;47.208;7.518;2023-05-09T06:47:29;18.10;99.90
38941;DHT22;43236;47.208;7.518;2023-05-09T06:50:16;18.60;99.90
38941;DHT22;43236;47.208;7.518;2023-05-09T06:53:03;19.80;99.90
38941;DHT22;43236;47.208;7.518;2023-05-09T06:55:50;18.50;99.90
38941;DHT22;43236;47.208;7.518;2023-05-09T06:58:37;18.60;99.90
38941;DHT22;43236;47.208;7.518;2023-05-09T07:01:24;18.90;99.90
38941;DHT22;43236;47.208;7.518;2023-05-09T07:04:12;18.10;99.90
38941;DHT22;43236;47.208;7.518;2023-05-09T07:06:59;18.80;99.90
38941;DHT22;43236;47.208;7.518;2023-05-09T07:09:46;20.20;99.90
38941;DHT22;43236;47.208;7.518;2023-05-09T07:12:33;18.90;99.90
38941;DHT22;43236;47.208;7.518;2023-05-09T07:15:19;18.70;99.90
38941;DHT22;43236;47.208;7.518;2023-05-09T07:18:06;18.70;99.90
38941;DHT22;43236;47.208;7.518;2023-05-09T07:20:55;19.10;99.90
38941;DHT22;43236;47.208;7.518;2023-05-09T07:23:41;19.20;99.90
38941;DHT22;43236;47.208;7.518;2023-05-09T07:26:28;19.10;99.90
38941;DHT22;43236;47.208;7.518;2023-05-09T07:29:16;19.40;99.90
38941;DHT22;43236;47.208;7.518;2023-05-09T07:32:04;19.10;99.90
38941;DHT22;43236;47.208;7.518;2023-05-09T07:34:51;19.20;99.90
38941;DHT22;43236;47.208;7.518;2023-05-09T07:37:39;19.40;99.90
38941;DHT22;43236;47.208;7.518;2023-05-09T07:40:26;20.90;99.90
38941;DHT22;43236;47.208;7.518;2023-05-09T07:43:13;19.70;99.90
38941;DHT22;43236;47.208;7.518;2023-05-09T07:46:00;19.50;99.90
38941;DHT22;43236;47.208;7.518;2023-05-09T07:48:47;19.80;99.90
38941;DHT22;43236;47.208;7.518;2023-05-09T07:51:34;19.50;99.90
38941;DHT22;43236;47.208;7.518;2023-05-09T07:54:22;19.60;99.90
38941;DHT22;43236;47.208;7.518;2023-05-09T07:57:09;18.90;99.90
38941;DHT22;43236;47.208;7.518;2023-05-09T07:59:56;19.50;99.90
38941;DHT22;43236;47.208;7.518;2023-05-09T08:02:43;19.40;99.90
38941;DHT22;43236;47.208;7.518;2023-05-09T08:05:30;19.80;99.90
38941;DHT22;43236;47.208;7.518;2023-05-09T08:08:17;19.70;99.90
38941;DHT22;43236;47.208;7.518;2023-05-09T08:11:05;19.60;99.90
38941;DHT22;43236;47.208;7.518;2023-05-09T08:13:52;19.30;99.90
38941;DHT22;43236;47.208;7.518;2023-05-09T08:16:39;19.60;99.90
38941;DHT22;43236;47.208;7.518;2023-05-09T08:19:27;19.50;99.90
38941;DHT22;43236;47.208;7.518;2023-05-09T08:22:18;19.20;99.90
38941;DHT22;43236;47.208;7.518;2023-05-09T08:25:06;21.50;99.90
38941;DHT22;43236;47.208;7.518;2023-05-09T08:27:54;19.50;99.90
38941;DHT22;43236;47.208;7.518;2023-05-09T08:30:41;20.00;99.90
38941;DHT22;43236;47.208;7.518;2023-05-09T08:33:28;20.30;99.90
38941;DHT22;43236;47.208;7.518;2023-05-09T08:36:15;19.80;99.90
38941;DHT22;43236;47.208;7.518;2023-05-09T08:39:02;19.70;99.90
38941;DHT22;43236;47.208;7.518;2023-05-09T08:41:49;20.30;99.90
38941;DHT22;43236;47.208;7.518;2023-05-09T08:44:37;20.80;99.90
38941;DHT22;43236;47.208;7.518;2023-05-09T08:47:24;20.30;99.90
38941;DHT22;43236;47.208;7.518;2023-05-09T08:50:11;20.10;99.90
38941;DHT22;43236;47.208;7.518;2023-05-09T08:52:59;22.20;99.90
38941;DHT22;43236;47.208;7.518;2023-05-09T08:55:46;20.70;99.90
38941;DHT22;43236;47.208;7.518;2023-05-09T08:58:36;19.80;99.90
38941;DHT22;43236;47.208;7.518;2023-05-09T09:01:25;21.00;99.90
38941;DHT22;43236;47.208;7.518;2023-05-09T09:04:13;21.30;99.90
38941;DHT22;43236;47.208;7.518;2023-05-09T09:07:00;20.30;99.90
38941;DHT22;43236;47.208;7.518;2023-05-09T09:09:49;19.80;99.90
38941;DHT22;43236;47.208;7.518;2023-05-09T09:12:38;20.10;99.90
38941;DHT22;43236;47.208;7.518;2023-05-09T09:15:27;20.70;99.90
38941;DHT22;43236;47.208;7.518;2023-05-09T09:18:17;21.30;99.90
38941;DHT22;43236;47.208;7.518;2023-05-09T09:21:06;20.20;99.90
38941;DHT22;43236;47.208;7.518;2023-05-09T09:23:55;21.50;99.90
38941;DHT22;43236;47.208;7.518;2023-05-09T09:26:44;21.20;99.90
38941;DHT22;43236;47.208;7.518;2023-05-09T09:29:31;20.20;99.90
38941;DHT22;43236;47.208;7.518;2023-05-09T09:32:18;21.80;99.90
38941;DHT22;43236;47.208;7.518;2023-05-09T09:35:08;21.40;99.90
38941;DHT22;43236;47.208;7.518;2023-05-09T09:37:55;19.80;97.20
38941;DHT22;43236;47.208;7.518;2023-05-09T09:40:47;21.20;99.90
38941;DHT22;43236;47.208;7.518;2023-05-09T09:43:34;20.30;97.80
38941;DHT22;43236;47.208;7.518;2023-05-09T09:46:21;21.10;98.50
38941;DHT22;43236;47.208;7.518;2023-05-09T09:49:08;21.20;98.90
38941;DHT22;43236;47.208;7.518;2023-05-09T09:51:56;21.60;99.30
38941;DHT22;43236;47.208;7.518;2023-05-09T09:54:44;22.10;99.10
38941;DHT22;43236;47.208;7.518;2023-05-09T09:57:34;21.70;97.00
38941;DHT22;43236;47.208;7.518;2023-05-09T10:00:23;21.50;95.80
38941;DHT22;43236;47.208;7.518;2023-05-09T10:03:13;21.90;95.90
38941;DHT22;43236;47.208;7.518;2023-05-09T10:06:00;21.00;95.80
38941;DHT22;43236;47.208;7.518;2023-05-09T10:08:48;21.30;96.70
38941;DHT22;43236;47.208;7.518;2023-05-09T10:11:35;22.00;97.10
38941;DHT22;43236;47.208;7.518;2023-05-09T10:14:23;22.00;96.70
38941;DHT22;43236;47.208;7.518;2023-05-09T10:17:12;21.60;96.20
38941;DHT22;43236;47.208;7.518;2023-05-09T10:20:00;22.20;97.20
38941;DHT22;43236;47.208;7.518;2023-05-09T10:22:48;21.00;96.10
38941;DHT22;43236;47.208;7.518;2023-05-09T10:25:38;22.00;96.60
38941;DHT22;43236;47.208;7.518;2023-05-09T10:31:13;22.00;95.00
38941;DHT22;43236;47.208;7.518;2023-05-09T10:34:02;20.70;96.00
38941;DHT22;43236;47.208;7.518;2023-05-09T10:36:50;21.70;94.70
38941;DHT22;43236;47.208;7.518;2023-05-09T10:39:37;20.80;93.90
38941;DHT22;43236;47.208;7.518;2023-05-09T10:42:26;22.40;95.80
38941;DHT22;43236;47.208;7.518;2023-05-09T10:45:14;21.70;94.40
38941;DHT22;43236;47.208;7.518;2023-05-09T10:48:01;22.60;94.60
38941;DHT22;43236;47.208;7.518;2023-05-09T10:50:50;22.40;92.00
38941;DHT22;43236;47.208;7.518;2023-05-09T10:56:25;22.40;92.70
38941;DHT22;43236;47.208;7.518;2023-05-09T10:59:32;22.70;93.40
38941;DHT22;43236;47.208;7.518;2023-05-09T11:02:20;22.60;93.70
38941;DHT22;43236;47.208;7.518;2023-05-09T11:05:12;21.10;92.90
38941;DHT22;43236;47.208;7.518;2023-05-09T11:08:16;22.40;93.30
38941;DHT22;43236;47.208;7.518;2023-05-09T11:11:04;23.10;93.60
38941;DHT22;43236;47.208;7.518;2023-05-09T11:13:53;21.80;92.60
38941;DHT22;43236;47.208;7.518;2023-05-09T11:16:56;22.80;91.80
38941;DHT22;43236;47.208;7.518;2023-05-09T11:19:57;21.40;91.50
38941;DHT22;43236;47.208;7.518;2023-05-09T11:22:44;22.10;91.60
38941;DHT22;43236;47.208;7.518;2023-05-09T11:25:32;22.60;92.30
38941;DHT22;43236;47.208;7.518;2023-05-09T11:28:25;21.80;90.80
38941;DHT22;43236;47.208;7.518;2023-05-09T11:31:13;22.70;91.30
38941;DHT22;43236;47.208;7.518;2023-05-09T11:34:04;22.60;90.50
38941;DHT22;43236;47.208;7.518;2023-05-09T11:36:51;22.60;90.40
38941;DHT22;43236;47.208;7.518;2023-05-09T11:39:56;22.80;90.00
38941;DHT22;43236;47.208;7.518;2023-05-09T11:42:44;23.00;89.90
38941;DHT22;43236;47.208;7.518;2023-05-09T11:45:31;22.80;89.90
38941;DHT22;43236;47.208;7.518;2023-05-09T11:48:20;22.50;90.20
38941;DHT22;43236;47.208;7.518;2023-05-09T11:51:15;23.00;90.60
38941;DHT22;43236;47.208;7.518;2023-05-09T11:54:03;22.90;88.60
38941;DHT22;43236;47.208;7.518;2023-05-09T11:56:51;22.80;89.70
38941;DHT22;43236;47.208;7.518;2023-05-09T11:59:38;23.10;91.20
38941;DHT22;43236;47.208;7.518;2023-05-09T12:02:25;22.80;90.10
38941;DHT22;43236;47.208;7.518;2023-05-09T12:05:13;22.90;89.70
38941;DHT22;43236;47.208;7.518;2023-05-09T12:08:02;21.90;89.10
38941;DHT22;43236;47.208;7.518;2023-05-09T12:10:50;22.90;89.50
38941;DHT22;43236;47.208;7.518;2023-05-09T12:13:43;22.80;89.60
38941;DHT22;43236;47.208;7.518;2023-05-09T12:16:29;21.90;90.40
38941;DHT22;43236;47.208;7.518;2023-05-09T12:19:17;22.90;90.40
38941;DHT22;43236;47.208;7.518;2023-05-09T12:22:04;22.60;89.40
38941;DHT22;43236;47.208;7.518;2023-05-09T12:24:52;22.90;88.70
38941;DHT22;43236;47.208;7.518;2023-05-09T12:27:40;22.10;89.60
38941;DHT22;43236;47.208;7.518;2023-05-09T12:30:27;22.50;90.00
38941;DHT22;43236;47.208;7.518;2023-05-09T12:33:14;22.80;90.00
38941;DHT22;43236;47.208;7.518;2023-05-09T12:36:01;24.40;91.90
38941;DHT22;43236;47.208;7.518;2023-05-09T12:38:52;21.60;90.40
38941;DHT22;43236;47.208;7.518;2023-05-09T12:41:44;21.20;88.10
38941;DHT22;43236;47.208;7.518;2023-05-09T12:44:31;22.70;88.60
38941;DHT22;43236;47.208;7.518;2023-05-09T12:47:18;22.40;91.10
38941;DHT22;43236;47.208;7.518;2023-05-09T12:50:06;22.60;90.20
38941;DHT22;43236;47.208;7.518;2023-05-09T12:52:53;21.90;90.40
38941;DHT22;43236;47.208;7.518;2023-05-09T12:55:40;22.10;90.90
38941;DHT22;43236;47.208;7.518;2023-05-09T12:58:30;22.40;89.50
38941;DHT22;43236;47.208;7.518;2023-05-09T13:01:17;22.40;90.40
38941;DHT22;43236;47.208;7.518;2023-05-09T13:04:05;21.40;90.20
38941;DHT22;43236;47.208;7.518;2023-05-09T13:06:53;22.20;89.80
38941;DHT22;43236;47.208;7.518;2023-05-09T13:09:53;22.50;90.60
38941;DHT22;43236;47.208;7.518;2023-05-09T13:12:40;22.30;90.80
38941;DHT22;43236;47.208;7.518;2023-05-09T13:15:31;22.40;91.00
38941;DHT22;43236;47.208;7.518;2023-05-09T13:18:18;22.40;90.90
38941;DHT22;43236;47.208;7.518;2023-05-09T13:21:05;22.20;91.30
38941;DHT22;43236;47.208;7.518;2023-05-09T13:23:52;22.40;91.90
38941;DHT22;43236;47.208;7.518;2023-05-09T13:26:39;21.00;91.60
38941;DHT22;43236;47.208;7.518;2023-05-09T13:29:25;22.10;91.70
38941;DHT22;43236;47.208;7.518;2023-05-09T13:32:14;22.00;91.80
38941;DHT22;43236;47.208;7.518;2023-05-09T13:35:01;21.20;91.70
38941;DHT22;43236;47.208;7.518;2023-05-09T13:37:48;22.10;92.50
38941;DHT22;43236;47.208;7.518;2023-05-09T13:40:35;20.90;92.50
38941;DHT22;43236;47.208;7.518;2023-05-09T13:43:22;21.80;93.40
38941;DHT22;43236;47.208;7.518;2023-05-09T13:46:09;21.70;93.40
38941;DHT22;43236;47.208;7.518;2023-05-09T13:48:57;22.30;93.80
38941;DHT22;43236;47.208;7.518;2023-05-09T13:51:44;20.10;93.30
38941;DHT22;43236;47.208;7.518;2023-05-09T13:54:31;20.20;92.80
38941;DHT22;43236;47.208;7.518;2023-05-09T13:57:19;21.30;93.90
38941;DHT22;43236;47.208;7.518;2023-05-09T14:00:07;21.50;93.70
38941;DHT22;43236;47.208;7.518;2023-05-09T14:02:55;21.50;93.60
38941;DHT22;43236;47.208;7.518;2023-05-09T14:05:43;22.80;94.30
38941;DHT22;43236;47.208;7.518;2023-05-09T14:08:30;21.40;94.30
38941;DHT22;43236;47.208;7.518;2023-05-09T14:11:17;20.80;94.60
38941;DHT22;43236;47.208;7.518;2023-05-09T14:14:04;19.50;94.20
38941;DHT22;43236;47.208;7.518;2023-05-09T14:16:51;19.50;94.80
38941;DHT22;43236;47.208;7.518;2023-05-09T14:19:38;19.60;95.40
38941;DHT22;43236;47.208;7.518;2023-05-09T14:22:26;21.00;96.30
38941;DHT22;43236;47.208;7.518;2023-05-09T14:25:13;21.00;95.80
38941;DHT22;43236;47.208;7.518;2023-05-09T14:28:00;20.00;95.20
38941;DHT22;43236;47.208;7.518;2023-05-09T14:30:47;19.60;95.00
38941;DHT22;43236;47.208;7.518;2023-05-09T14:33:34;20.60;96.80
38941;DHT22;43236;47.208;7.518;2023-05-09T14:36:21;20.70;96.20
38941;DHT22;43236;47.208;7.518;2023-05-09T14:39:10;20.50;96.50
38941;DHT22;43236;47.208;7.518;2023-05-09T14:41:57;20.60;97.10
38941;DHT22;43236;47.208;7.518;2023-05-09T14:44:44;20.10;97.40
38941;DHT22;43236;47.208;7.518;2023-05-09T14:47:31;19.60;97.80
38941;DHT22;43236;47.208;7.518;2023-05-09T14:50:19;19.10;98.10
38941;DHT22;43236;47.208;7.518;2023-05-09T14:53:06;19.80;98.80
38941;DHT22;43236;47.208;7.518;2023-05-09T14:55:55;20.00;99.00
38941;DHT22;43236;47.208;7.518;2023-05-09T14:58:42;20.40;99.40
38941;DHT22;43236;47.208;7.518;2023-05-09T15:01:28;19.70;99.60
38941;DHT22;43236;47.208;7.518;2023-05-09T15:04:16;20.80;99.90
38941;DHT22;43236;47.208;7.518;2023-05-09T15:07:03;20.00;99.90
38941;DHT22;43236;47.208;7.518;2023-05-09T15:09:50;19.30;99.90
38941;DHT22;43236;47.208;7.518;2023-05-09T15:12:38;19.70;99.90
38941;DHT22;43236;47.208;7.518;2023-05-09T15:15:25;19.60;99.90
38941;DHT22;43236;47.208;7.518;2023-05-09T15:18:13;20.40;99.90
38941;DHT22;43236;47.208;7.518;2023-05-09T15:21:01;20.60;99.90
38941;DHT22;43236;47.208;7.518;2023-05-09T15:23:48;20.10;99.90
38941;DHT22;43236;47.208;7.518;2023-05-09T15:26:35;19.20;99.90
38941;DHT22;43236;47.208;7.518;2023-05-09T15:29:23;21.90;99.90
38941;DHT22;43236;47.208;7.518;2023-05-09T15:32:10;19.40;99.90
38941;DHT22;43236;47.208;7.518;2023-05-09T15:34:57;20.10;99.90
38941;DHT22;43236;47.208;7.518;2023-05-09T15:37:44;20.10;99.90
38941;DHT22;43236;47.208;7.518;2023-05-09T15:40:31;19.80;99.90
38941;DHT22;43236;47.208;7.518;2023-05-09T15:43:17;20.10;99.90
38941;DHT22;43236;47.208;7.518;2023-05-09T15:46:06;18.80;99.90
38941;DHT22;43236;47.208;7.518;2023-05-09T15:48:53;20.00;99.90
38941;DHT22;43236;47.208;7.518;2023-05-09T15:54:27;19.80;99.90
38941;DHT22;43236;47.208;7.518;2023-05-09T15:57:16;18.80;99.90
38941;DHT22;43236;47.208;7.518;2023-05-09T16:00:03;19.50;99.90
38941;DHT22;43236;47.208;7.518;2023-05-09T16:02:51;19.20;99.90
38941;DHT22;43236;47.208;7.518;2023-05-09T16:05:38;19.30;99.90
38941;DHT22;43236;47.208;7.518;2023-05-09T16:08:25;19.00;99.90
38941;DHT22;43236;47.208;7.518;2023-05-09T16:11:12;19.00;99.90
38941;DHT22;43236;47.208;7.518;2023-05-09T16:13:59;18.90;99.90
38941;DHT22;43236;47.208;7.518;2023-05-09T16:16:46;18.90;99.90
38941;DHT22;43236;47.208;7.518;2023-05-09T16:19:36;19.30;99.90
38941;DHT22;43236;47.208;7.518;2023-05-09T16:22:23;19.30;99.90
38941;DHT22;43236;47.208;7.518;2023-05-09T16:25:10;18.90;99.90
38941;DHT22;43236;47.208;7.518;2023-05-09T16:27:57;18.60;99.90
38941;DHT22;43236;47.208;7.518;2023-05-09T16:30:44;19.30;99.90
38941;DHT22;43236;47.208;7.518;2023-05-09T16:33:31;19.10;99.90
38941;DHT22;43236;47.208;7.518;2023-05-09T16:36:19;19.10;99.90
38941;DHT22;43236;47.208;7.518;2023-05-09T16:39:06;19.00;99.90
38941;DHT22;43236;47.208;7.518;2023-05-09T16:41:53;20.00;99.90
38941;DHT22;43236;47.208;7.518;2023-05-09T16:44:40;18.90;99.90
38941;DHT22;43236;47.208;7.518;2023-05-09T16:47:27;18.90;99.90
38941;DHT22;43236;47.208;7.518;2023-05-09T16:50:14;19.00;99.90
38941;DHT22;43236;47.208;7.518;2023-05-09T16:53:02;18.90;99.90
38941;DHT22;43236;47.208;7.518;2023-05-09T16:55:49;19.90;99.90
38941;DHT22;43236;47.208;7.518;2023-05-09T16:58:38;18.90;99.90
38941;DHT22;43236;47.208;7.518;2023-05-09T17:01:25;19.00;99.90
38941;DHT22;43236;47.208;7.518;2023-05-09T17:04:12;19.10;99.90
38941;DHT22;43236;47.208;7.518;2023-05-09T17:06:59;19.10;99.90
38941;DHT22;43236;47.208;7.518;2023-05-09T17:09:47;18.80;99.90
38941;DHT22;43236;47.208;7.518;2023-05-09T17:12:34;19.40;99.90
38941;DHT22;43236;47.208;7.518;2023-05-09T17:15:23;18.50;99.90
38941;DHT22;43236;47.208;7.518;2023-05-09T17:18:10;18.40;99.90
38941;DHT22;43236;47.208;7.518;2023-05-09T17:20:57;19.40;99.90
38941;DHT22;43236;47.208;7.518;2023-05-09T17:23:44;19.70;99.90
38941;DHT22;43236;47.208;7.518;2023-05-09T17:26:32;17.80;99.90
38941;DHT22;43236;47.208;7.518;2023-05-09T17:29:19;18.10;99.90
38941;DHT22;43236;47.208;7.518;2023-05-09T17:32:06;19.60;99.90
38941;DHT22;43236;47.208;7.518;2023-05-09T17:34:53;18.10;99.90
38941;DHT22;43236;47.208;7.518;2023-05-09T17:37:40;19.20;99.90
38941;DHT22;43236;47.208;7.518;2023-05-09T17:40:27;19.50;99.90
38941;DHT22;43236;47.208;7.518;2023-05-09T17:43:15;18.00;99.90
38941;DHT22;43236;47.208;7.518;2023-05-09T17:46:02;18.30;99.90
38941;DHT22;43236;47.208;7.518;2023-05-09T17:48:49;18.10;99.90
38941;DHT22;43236;47.208;7.518;2023-05-09T17:51:36;19.30;99.90
38941;DHT22;43236;47.208;7.518;2023-05-09T17:54:23;18.00;99.90
38941;DHT22;43236;47.208;7.518;2023-05-09T17:57:10;18.00;99.90
38941;DHT22;43236;47.208;7.518;2023-05-09T17:59:58;17.90;99.90